sensor_id;sensor_type;location;lat;lon;timestamp;temperature;humidity
4374;DHT22;2201;51.100;6.814;2023-12-20T00:50:48;7.80;98.20
4374;DHT22;2201;51.100;6.814;2023-12-20T00:54:07;7.80;98.20
4374;DHT22;2201;51.100;6.814;2023-12-20T00:57:24;7.80;98.20
4374;DHT22;2201;51.100;6.814;2023-12-20T01:00:09;7.70;98.20
4374;DHT22;2201;51.100;6.814;2023-12-20T01:02:38;7.70;98.20
4374;DHT22;2201;51.100;6.814;2023-12-20T01:05:06;7.60;98.20
4374;DHT22;2201;51.100;6.814;2023-12-20T01:07:36;7.60;98.20
4374;DHT22;2201;51.100;6.814;2023-12-20T01:10:06;7.60;98.20
4374;DHT22;2201;51.100;6.814;2023-12-20T01:12:33;7.60;98.20
4374;DHT22;2201;51.100;6.814;2023-12-20T01:15:00;7.60;98.20
4374;DHT22;2201;51.100;6.814;2023-12-20T01:17:27;7.60;98.20
4374;DHT22;2201;51.100;6.814;2023-12-20T01:19:55;7.60;98.20
4374;DHT22;2201;51.100;6.814;2023-12-20T01:22:23;7.60;98.20
4374;DHT22;2201;51.100;6.814;2023-12-20T01:24:51;7.60;98.20
4374;DHT22;2201;51.100;6.814;2023-12-20T01:27:18;7.50;98.20
4374;DHT22;2201;51.100;6.814;2023-12-20T01:29:48;7.50;98.20
4374;DHT22;2201;51.100;6.814;2023-12-20T01:32:15;7.40;98.20
4374;DHT22;2201;51.100;6.814;2023-12-20T01:34:41;7.40;98.20
4374;DHT22;2201;51.100;6.814;2023-12-20T01:37:07;7.30;98.20
4374;DHT22;2201;51.100;6.814;2023-12-20T01:39:34;7.30;98.20
4374;DHT22;2201;51.100;6.814;2023-12-20T01:42:05;7.30;98.20
4374;DHT22;2201;51.100;6.814;2023-12-20T01:44:32;7.30;98.20
4374;DHT22;2201;51.100;6.814;2023-12-20T01:46:59;7.30;98.20
4374;DHT22;2201;51.100;6.814;2023-12-20T01:49:26;7.20;98.20
4374;DHT22;2201;51.100;6.814;2023-12-20T01:51:53;7.20;98.20
4374;DHT22;2201;51.100;6.814;2023-12-20T01:54:21;7.20;98.20
4374;DHT22;2201;51.100;6.814;2023-12-20T01:56:49;7.20;98.20
4374;DHT22;2201;51.100;6.814;2023-12-20T01:59:18;7.20;98.20
4374;DHT22;2201;51.100;6.814;2023-12-20T02:01:45;7.10;98.20
4374;DHT22;2201;51.100;6.814;2023-12-20T02:04:12;7.10;98.20
4374;DHT22;2201;51.100;6.814;2023-12-20T02:06:40;7.00;98.20
4374;DHT22;2201;51.100;6.814;2023-12-20T02:09:07;7.00;98.20
4374;DHT22;2201;51.100;6.814;2023-12-20T02:11:34;6.90;98.20
4374;DHT22;2201;51.100;6.814;2023-12-20T02:14:02;6.80;98.20
4374;DHT22;2201;51.100;6.814;2023-12-20T02:16:31;6.80;98.20
4374;DHT22;2201;51.100;6.814;2023-12-20T02:18:58;6.80;98.20
4374;DHT22;2201;51.100;6.814;2023-12-20T02:21:32;6.70;98.20
4374;DHT22;2201;51.100;6.814;2023-12-20T02:24:00;6.70;98.20
4374;DHT22;2201;51.100;6.814;2023-12-20T02:26:27;6.70;98.20
4374;DHT22;2201;51.100;6.814;2023-12-20T02:28:54;6.70;98.20
4374;DHT22;2201;51.100;6.814;2023-12-20T02:31:22;6.60;98.20
4374;DHT22;2201;51.100;6.814;2023-12-20T02:33:49;6.60;98.20
4374;DHT22;2201;51.100;6.814;2023-12-20T02:36:16;6.50;98.20
4374;DHT22;2201;51.100;6.814;2023-12-20T02:38:44;6.50;98.20
4374;DHT22;2201;51.100;6.814;2023-12-20T02:41:12;6.50;98.20
4374;DHT22;2201;51.100;6.814;2023-12-20T02:43:41;6.50;98.20
4374;DHT22;2201;51.100;6.814;2023-12-20T02:46:08;6.50;98.20
4374;DHT22;2201;51.100;6.814;2023-12-20T02:48:35;6.50;98.20
4374;DHT22;2201;51.100;6.814;2023-12-20T02:51:05;6.50;98.20
4374;DHT22;2201;51.100;6.814;2023-12-20T02:53:32;6.50;98.20
4374;DHT22;2201;51.100;6.814;2023-12-20T02:56:00;6.50;98.20
4374;DHT22;2201;51.100;6.814;2023-12-20T02:58:27;6.50;98.20
4374;DHT22;2201;51.100;6.814;2023-12-20T03:00:54;6.50;98.20
4374;DHT22;2201;51.100;6.814;2023-12-20T03:03:21;6.50;98.20
4374;DHT22;2201;51.100;6.814;2023-12-20T03:05:47;6.50;98.20
4374;DHT22;2201;51.100;6.814;2023-12-20T03:08:14;6.50;98.20
4374;DHT22;2201;51.100;6.814;2023-12-20T03:10:41;6.50;98.20
4374;DHT22;2201;51.100;6.814;2023-12-20T03:13:09;6.50;98.20
4374;DHT22;2201;51.100;6.814;2023-12-20T03:15:36;6.50;98.20
4374;DHT22;2201;51.100;6.814;2023-12-20T03:18:04;6.50;98.20
4374;DHT22;2201;51.100;6.814;2023-12-20T03:20:31;6.50;98.20
4374;DHT22;2201;51.100;6.814;2023-12-20T03:22:59;6.50;98.20
4374;DHT22;2201;51.100;6.814;2023-12-20T03:25:27;6.50;98.20
4374;DHT22;2201;51.100;6.814;2023-12-20T03:27:59;6.40;98.20
4374;DHT22;2201;51.100;6.814;2023-12-20T03:30:28;6.40;98.20
4374;DHT22;2201;51.100;6.814;2023-12-20T03:32:55;6.40;98.20
4374;DHT22;2201;51.100;6.814;2023-12-20T03:35:21;6.30;98.20
4374;DHT22;2201;51.100;6.814;2023-12-20T03:40:53;6.30;98.20
4374;DHT22;2201;51.100;6.814;2023-12-20T03:43:20;6.30;98.20
4374;DHT22;2201;51.100;6.814;2023-12-20T03:45:54;6.30;98.20
4374;DHT22;2201;51.100;6.814;2023-12-20T03:48:21;6.30;98.20
4374;DHT22;2201;51.100;6.814;2023-12-20T03:50:48;6.20;98.20
4374;DHT22;2201;51.100;6.814;2023-12-20T03:53:14;6.20;98.20
4374;DHT22;2201;51.100;6.814;2023-12-20T03:55:41;6.20;98.20
4374;DHT22;2201;51.100;6.814;2023-12-20T03:58:08;6.20;98.20
4374;DHT22;2201;51.100;6.814;2023-12-20T04:00:35;6.20;98.20
4374;DHT22;2201;51.100;6.814;2023-12-20T04:03:04;6.10;98.20
4374;DHT22;2201;51.100;6.814;2023-12-20T04:05:31;6.20;98.20
4374;DHT22;2201;51.100;6.814;2023-12-20T04:08:01;6.20;98.20
4374;DHT22;2201;51.100;6.814;2023-12-20T04:10:28;6.20;98.20
4374;DHT22;2201;51.100;6.814;2023-12-20T04:12:55;6.20;98.20
4374;DHT22;2201;51.100;6.814;2023-12-20T04:15:22;6.20;98.20
4374;DHT22;2201;51.100;6.814;2023-12-20T04:17:49;6.20;98.20
4374;DHT22;2201;51.100;6.814;2023-12-20T04:20:17;6.20;98.20
4374;DHT22;2201;51.100;6.814;2023-12-20T04:22:44;6.30;98.20
4374;DHT22;2201;51.100;6.814;2023-12-20T04:25:11;6.30;98.20
4374;DHT22;2201;51.100;6.814;2023-12-20T04:27:38;6.30;98.20
4374;DHT22;2201;51.100;6.814;2023-12-20T04:30:07;6.30;98.20
4374;DHT22;2201;51.100;6.814;2023-12-20T04:32:34;6.30;98.20
4374;DHT22;2201;51.100;6.814;2023-12-20T04:35:01;6.30;98.20
4374;DHT22;2201;51.100;6.814;2023-12-20T04:37:29;6.30;98.20
4374;DHT22;2201;51.100;6.814;2023-12-20T04:39:56;6.30;98.20
4374;DHT22;2201;51.100;6.814;2023-12-20T04:42:22;6.30;98.20
4374;DHT22;2201;51.100;6.814;2023-12-20T04:44:49;6.20;98.20
4374;DHT22;2201;51.100;6.814;2023-12-20T04:47:16;6.20;98.20
4374;DHT22;2201;51.100;6.814;2023-12-20T04:49:43;6.20;98.20
4374;DHT22;2201;51.100;6.814;2023-12-20T04:52:10;6.20;98.20
4374;DHT22;2201;51.100;6.814;2023-12-20T04:54:39;6.20;98.20
4374;DHT22;2201;51.100;6.814;2023-12-20T04:57:06;6.20;98.20
4374;DHT22;2201;51.100;6.814;2023-12-20T04:59:33;6.20;98.20
4374;DHT22;2201;51.100;6.814;2023-12-20T05:02:00;6.20;98.20
4374;DHT22;2201;51.100;6.814;2023-12-20T05:04:30;6.20;98.20
4374;DHT22;2201;51.100;6.814;2023-12-20T05:06:57;6.20;98.20
4374;DHT22;2201;51.100;6.814;2023-12-20T05:09:24;6.10;98.20
4374;DHT22;2201;51.100;6.814;2023-12-20T05:11:55;6.10;98.20
4374;DHT22;2201;51.100;6.814;2023-12-20T05:14:22;6.10;98.20
4374;DHT22;2201;51.100;6.814;2023-12-20T05:16:51;6.10;98.20
4374;DHT22;2201;51.100;6.814;2023-12-20T05:22:41;6.00;98.20
4374;DHT22;2201;51.100;6.814;2023-12-20T05:25:09;6.00;98.20
4374;DHT22;2201;51.100;6.814;2023-12-20T05:27:37;6.00;98.20
4374;DHT22;2201;51.100;6.814;2023-12-20T05:30:16;6.00;98.20
4374;DHT22;2201;51.100;6.814;2023-12-20T05:33:00;6.00;98.20
4374;DHT22;2201;51.100;6.814;2023-12-20T05:35:42;6.00;98.20
4374;DHT22;2201;51.100;6.814;2023-12-20T05:38:09;6.00;98.20
4374;DHT22;2201;51.100;6.814;2023-12-20T05:40:36;6.00;98.20
4374;DHT22;2201;51.100;6.814;2023-12-20T05:43:04;6.00;98.20
4374;DHT22;2201;51.100;6.814;2023-12-20T05:45:31;6.00;98.20
4374;DHT22;2201;51.100;6.814;2023-12-20T05:59:13;6.20;98.20
4374;DHT22;2201;51.100;6.814;2023-12-20T06:01:49;6.20;98.20
4374;DHT22;2201;51.100;6.814;2023-12-20T06:04:22;6.20;98.20
4374;DHT22;2201;51.100;6.814;2023-12-20T06:07:03;6.20;98.20
4374;DHT22;2201;51.100;6.814;2023-12-20T06:09:31;6.20;98.20
4374;DHT22;2201;51.100;6.814;2023-12-20T06:12:08;6.30;98.20
4374;DHT22;2201;51.100;6.814;2023-12-20T06:14:40;6.30;98.20
4374;DHT22;2201;51.100;6.814;2023-12-20T06:17:07;6.30;98.20
4374;DHT22;2201;51.100;6.814;2023-12-20T06:19:34;6.30;98.20
4374;DHT22;2201;51.100;6.814;2023-12-20T06:22:01;6.30;98.20
4374;DHT22;2201;51.100;6.814;2023-12-20T06:24:28;6.40;98.20
4374;DHT22;2201;51.100;6.814;2023-12-20T06:27:02;6.40;98.20
4374;DHT22;2201;51.100;6.814;2023-12-20T06:29:30;6.40;98.20
4374;DHT22;2201;51.100;6.814;2023-12-20T06:31:59;6.40;98.20
4374;DHT22;2201;51.100;6.814;2023-12-20T06:34:26;6.40;98.20
4374;DHT22;2201;51.100;6.814;2023-12-20T06:40:15;6.50;98.20
4374;DHT22;2201;51.100;6.814;2023-12-20T06:42:44;6.50;98.20
4374;DHT22;2201;51.100;6.814;2023-12-20T06:45:14;6.50;98.20
4374;DHT22;2201;51.100;6.814;2023-12-20T06:51:00;6.50;98.20
4374;DHT22;2201;51.100;6.814;2023-12-20T06:53:27;6.60;98.20
4374;DHT22;2201;51.100;6.814;2023-12-20T06:56:01;6.60;98.20
4374;DHT22;2201;51.100;6.814;2023-12-20T06:58:29;6.60;98.20
4374;DHT22;2201;51.100;6.814;2023-12-20T07:01:11;6.60;98.20
4374;DHT22;2201;51.100;6.814;2023-12-20T07:03:59;6.60;98.20
4374;DHT22;2201;51.100;6.814;2023-12-20T07:07:04;6.60;98.20
4374;DHT22;2201;51.100;6.814;2023-12-20T07:09:39;6.60;98.20
4374;DHT22;2201;51.100;6.814;2023-12-20T07:12:08;6.60;98.20
4374;DHT22;2201;51.100;6.814;2023-12-20T07:14:38;6.60;98.20
4374;DHT22;2201;51.100;6.814;2023-12-20T07:17:06;6.70;98.20
4374;DHT22;2201;51.100;6.814;2023-12-20T07:20:01;6.70;98.20
4374;DHT22;2201;51.100;6.814;2023-12-20T07:22:38;6.70;98.20
4374;DHT22;2201;51.100;6.814;2023-12-20T07:25:07;6.70;98.20
4374;DHT22;2201;51.100;6.814;2023-12-20T07:27:34;6.70;98.20
4374;DHT22;2201;51.100;6.814;2023-12-20T07:30:12;6.70;98.20
4374;DHT22;2201;51.100;6.814;2023-12-20T07:32:42;6.70;98.20
4374;DHT22;2201;51.100;6.814;2023-12-20T07:35:14;6.70;98.20
4374;DHT22;2201;51.100;6.814;2023-12-20T07:37:52;6.70;98.20
4374;DHT22;2201;51.100;6.814;2023-12-20T07:40:19;6.70;98.20
4374;DHT22;2201;51.100;6.814;2023-12-20T07:42:46;6.70;98.20
4374;DHT22;2201;51.100;6.814;2023-12-20T07:45:13;6.70;98.20
4374;DHT22;2201;51.100;6.814;2023-12-20T07:47:40;6.70;98.20
4374;DHT22;2201;51.100;6.814;2023-12-20T07:50:07;6.70;98.20
4374;DHT22;2201;51.100;6.814;2023-12-20T07:52:34;6.70;98.20
4374;DHT22;2201;51.100;6.814;2023-12-20T07:55:02;6.70;98.20
4374;DHT22;2201;51.100;6.814;2023-12-20T07:57:29;6.80;98.20
4374;DHT22;2201;51.100;6.814;2023-12-20T07:59:56;6.70;98.20
4374;DHT22;2201;51.100;6.814;2023-12-20T08:02:27;6.80;98.20
4374;DHT22;2201;51.100;6.814;2023-12-20T08:04:54;6.80;98.20
4374;DHT22;2201;51.100;6.814;2023-12-20T08:07:28;6.70;98.20
4374;DHT22;2201;51.100;6.814;2023-12-20T08:10:03;6.70;98.20
4374;DHT22;2201;51.100;6.814;2023-12-20T08:12:37;6.80;98.20
4374;DHT22;2201;51.100;6.814;2023-12-20T08:15:09;6.80;98.20
4374;DHT22;2201;51.100;6.814;2023-12-20T08:17:36;6.80;98.20
4374;DHT22;2201;51.100;6.814;2023-12-20T08:20:04;6.80;98.20
4374;DHT22;2201;51.100;6.814;2023-12-20T08:22:34;6.80;98.20
4374;DHT22;2201;51.100;6.814;2023-12-20T08:25:03;6.80;98.20
4374;DHT22;2201;51.100;6.814;2023-12-20T08:27:30;6.80;98.20
4374;DHT22;2201;51.100;6.814;2023-12-20T08:29:58;6.80;98.20
4374;DHT22;2201;51.100;6.814;2023-12-20T08:32:50;6.80;98.20
4374;DHT22;2201;51.100;6.814;2023-12-20T08:35:54;6.80;98.20
4374;DHT22;2201;51.100;6.814;2023-12-20T08:38:32;6.80;98.20
4374;DHT22;2201;51.100;6.814;2023-12-20T08:41:05;6.80;98.20
4374;DHT22;2201;51.100;6.814;2023-12-20T08:43:33;6.80;98.20
4374;DHT22;2201;51.100;6.814;2023-12-20T08:46:01;6.80;98.20
4374;DHT22;2201;51.100;6.814;2023-12-20T08:48:28;6.80;98.20
4374;DHT22;2201;51.100;6.814;2023-12-20T08:50:55;6.80;98.20
4374;DHT22;2201;51.100;6.814;2023-12-20T08:53:26;6.80;98.20
4374;DHT22;2201;51.100;6.814;2023-12-20T08:58:36;6.80;98.20
4374;DHT22;2201;51.100;6.814;2023-12-20T09:01:12;6.90;98.20
4374;DHT22;2201;51.100;6.814;2023-12-20T09:03:56;6.90;98.20
4374;DHT22;2201;51.100;6.814;2023-12-20T09:06:23;6.90;98.20
4374;DHT22;2201;51.100;6.814;2023-12-20T09:08:51;6.90;98.20
4374;DHT22;2201;51.100;6.814;2023-12-20T09:11:18;6.90;98.20
4374;DHT22;2201;51.100;6.814;2023-12-20T09:13:46;7.00;98.20
4374;DHT22;2201;51.100;6.814;2023-12-20T09:16:13;7.00;98.20
4374;DHT22;2201;51.100;6.814;2023-12-20T09:18:41;7.00;98.20
4374;DHT22;2201;51.100;6.814;2023-12-20T09:21:08;7.00;98.20
4374;DHT22;2201;51.100;6.814;2023-12-20T09:23:35;7.00;98.20
4374;DHT22;2201;51.100;6.814;2023-12-20T09:26:03;7.00;98.20
4374;DHT22;2201;51.100;6.814;2023-12-20T09:28:30;7.00;98.20
4374;DHT22;2201;51.100;6.814;2023-12-20T09:31:04;7.00;98.20
4374;DHT22;2201;51.100;6.814;2023-12-20T09:33:35;7.10;98.20
4374;DHT22;2201;51.100;6.814;2023-12-20T09:36:03;7.10;98.20
4374;DHT22;2201;51.100;6.814;2023-12-20T09:38:30;7.10;98.20
4374;DHT22;2201;51.100;6.814;2023-12-20T09:40:57;7.10;98.20
4374;DHT22;2201;51.100;6.814;2023-12-20T09:43:24;7.10;98.20
4374;DHT22;2201;51.100;6.814;2023-12-20T09:45:54;7.10;98.20
4374;DHT22;2201;51.100;6.814;2023-12-20T09:48:33;7.10;98.20
4374;DHT22;2201;51.100;6.814;2023-12-20T09:51:00;7.10;98.20
4374;DHT22;2201;51.100;6.814;2023-12-20T09:53:37;7.10;98.20
4374;DHT22;2201;51.100;6.814;2023-12-20T09:56:16;7.10;98.20
4374;DHT22;2201;51.100;6.814;2023-12-20T09:58:43;7.20;98.20
4374;DHT22;2201;51.100;6.814;2023-12-20T10:01:10;7.20;98.20
4374;DHT22;2201;51.100;6.814;2023-12-20T10:03:41;7.20;98.20
4374;DHT22;2201;51.100;6.814;2023-12-20T10:06:08;7.20;98.20
4374;DHT22;2201;51.100;6.814;2023-12-20T10:08:41;7.20;98.20
4374;DHT22;2201;51.100;6.814;2023-12-20T10:11:08;7.20;98.20
4374;DHT22;2201;51.100;6.814;2023-12-20T10:13:39;7.30;98.20
4374;DHT22;2201;51.100;6.814;2023-12-20T10:16:06;7.30;98.20
4374;DHT22;2201;51.100;6.814;2023-12-20T10:18:34;7.30;98.20
4374;DHT22;2201;51.100;6.814;2023-12-20T10:21:04;7.30;98.20
4374;DHT22;2201;51.100;6.814;2023-12-20T10:23:32;7.30;98.20
4374;DHT22;2201;51.100;6.814;2023-12-20T10:25:59;7.30;98.20
4374;DHT22;2201;51.100;6.814;2023-12-20T10:28:28;7.30;98.20
4374;DHT22;2201;51.100;6.814;2023-12-20T10:31:00;7.40;98.20
4374;DHT22;2201;51.100;6.814;2023-12-20T10:33:42;7.40;98.20
4374;DHT22;2201;51.100;6.814;2023-12-20T10:36:36;7.40;98.20
4374;DHT22;2201;51.100;6.814;2023-12-20T10:39:15;7.40;98.20
4374;DHT22;2201;51.100;6.814;2023-12-20T10:41:42;7.40;98.20
4374;DHT22;2201;51.100;6.814;2023-12-20T10:44:11;7.40;98.20
4374;DHT22;2201;51.100;6.814;2023-12-20T10:46:40;7.40;98.20
4374;DHT22;2201;51.100;6.814;2023-12-20T10:49:13;7.40;98.20
4374;DHT22;2201;51.100;6.814;2023-12-20T10:51:45;7.40;98.20
4374;DHT22;2201;51.100;6.814;2023-12-20T10:54:18;7.40;98.20
4374;DHT22;2201;51.100;6.814;2023-12-20T10:56:45;7.40;98.20
4374;DHT22;2201;51.100;6.814;2023-12-20T10:59:18;7.40;98.20
4374;DHT22;2201;51.100;6.814;2023-12-20T11:01:48;7.40;98.20
4374;DHT22;2201;51.100;6.814;2023-12-20T11:04:28;7.40;98.20
4374;DHT22;2201;51.100;6.814;2023-12-20T11:07:08;7.50;98.20
4374;DHT22;2201;51.100;6.814;2023-12-20T11:09:38;7.50;98.20
4374;DHT22;2201;51.100;6.814;2023-12-20T11:12:19;7.50;98.20
4374;DHT22;2201;51.100;6.814;2023-12-20T11:14:55;7.60;98.20
4374;DHT22;2201;51.100;6.814;2023-12-20T11:17:23;7.60;98.20
4374;DHT22;2201;51.100;6.814;2023-12-20T11:20:09;7.60;98.20
4374;DHT22;2201;51.100;6.814;2023-12-20T11:22:40;7.70;98.20
4374;DHT22;2201;51.100;6.814;2023-12-20T11:25:18;7.70;98.20
4374;DHT22;2201;51.100;6.814;2023-12-20T11:28:09;7.70;98.20
4374;DHT22;2201;51.100;6.814;2023-12-20T11:30:45;7.70;98.20
4374;DHT22;2201;51.100;6.814;2023-12-20T11:33:14;7.70;98.20
4374;DHT22;2201;51.100;6.814;2023-12-20T11:35:42;7.70;98.20
4374;DHT22;2201;51.100;6.814;2023-12-20T12:22:42;7.50;98.20
4374;DHT22;2201;51.100;6.814;2023-12-20T12:25:30;7.60;98.20
4374;DHT22;2201;51.100;6.814;2023-12-20T12:28:05;7.60;98.20
4374;DHT22;2201;51.100;6.814;2023-12-20T12:31:05;7.60;98.20
4374;DHT22;2201;51.100;6.814;2023-12-20T12:37:18;7.60;98.20
4374;DHT22;2201;51.100;6.814;2023-12-20T12:43:59;7.60;98.20
4374;DHT22;2201;51.100;6.814;2023-12-20T13:09:07;7.80;98.20
4374;DHT22;2201;51.100;6.814;2023-12-20T13:11:35;7.80;98.20
4374;DHT22;2201;51.100;6.814;2023-12-20T13:14:02;7.90;98.20
4374;DHT22;2201;51.100;6.814;2023-12-20T13:16:30;7.90;98.20
4374;DHT22;2201;51.100;6.814;2023-12-20T13:18:57;7.90;98.20
4374;DHT22;2201;51.100;6.814;2023-12-20T13:21:25;8.00;98.20
4374;DHT22;2201;51.100;6.814;2023-12-20T13:23:52;8.10;98.20
4374;DHT22;2201;51.100;6.814;2023-12-20T13:26:21;8.10;98.20
4374;DHT22;2201;51.100;6.814;2023-12-20T13:28:48;8.10;98.20
4374;DHT22;2201;51.100;6.814;2023-12-20T13:31:19;8.10;98.20
4374;DHT22;2201;51.100;6.814;2023-12-20T13:33:47;8.00;98.20
4374;DHT22;2201;51.100;6.814;2023-12-20T13:36:14;8.00;98.20
4374;DHT22;2201;51.100;6.814;2023-12-20T13:38:41;8.00;98.20
4374;DHT22;2201;51.100;6.814;2023-12-20T13:41:12;8.00;98.20
4374;DHT22;2201;51.100;6.814;2023-12-20T13:43:41;8.00;98.20
4374;DHT22;2201;51.100;6.814;2023-12-20T13:46:08;7.90;98.20
4374;DHT22;2201;51.100;6.814;2023-12-20T13:48:35;7.90;98.20
4374;DHT22;2201;51.100;6.814;2023-12-20T13:51:03;7.90;98.20
4374;DHT22;2201;51.100;6.814;2023-12-20T13:53:32;7.90;98.20
4374;DHT22;2201;51.100;6.814;2023-12-20T13:56:11;7.90;98.20
4374;DHT22;2201;51.100;6.814;2023-12-20T13:58:38;7.90;98.20
4374;DHT22;2201;51.100;6.814;2023-12-20T14:01:08;7.90;98.20
4374;DHT22;2201;51.100;6.814;2023-12-20T14:03:36;7.90;98.20
4374;DHT22;2201;51.100;6.814;2023-12-20T14:06:03;7.90;98.20
4374;DHT22;2201;51.100;6.814;2023-12-20T14:08:31;7.90;98.20
4374;DHT22;2201;51.100;6.814;2023-12-20T14:10:58;7.90;98.20
4374;DHT22;2201;51.100;6.814;2023-12-20T14:13:26;7.90;98.20
4374;DHT22;2201;51.100;6.814;2023-12-20T14:15:54;7.90;98.20
4374;DHT22;2201;51.100;6.814;2023-12-20T14:18:22;7.90;98.20
4374;DHT22;2201;51.100;6.814;2023-12-20T14:20:49;7.90;98.20
4374;DHT22;2201;51.100;6.814;2023-12-20T14:23:17;7.90;98.20
4374;DHT22;2201;51.100;6.814;2023-12-20T14:25:44;7.90;98.20
4374;DHT22;2201;51.100;6.814;2023-12-20T14:28:11;7.90;98.20
4374;DHT22;2201;51.100;6.814;2023-12-20T14:30:40;7.90;98.20
4374;DHT22;2201;51.100;6.814;2023-12-20T14:33:07;7.90;98.20
4374;DHT22;2201;51.100;6.814;2023-12-20T14:35:35;7.90;98.20
4374;DHT22;2201;51.100;6.814;2023-12-20T14:38:02;7.90;98.20
4374;DHT22;2201;51.100;6.814;2023-12-20T14:40:29;7.90;98.20
4374;DHT22;2201;51.100;6.814;2023-12-20T14:42:56;8.00;98.20
4374;DHT22;2201;51.100;6.814;2023-12-20T14:45:23;8.00;98.20
4374;DHT22;2201;51.100;6.814;2023-12-20T14:47:51;8.00;98.20
4374;DHT22;2201;51.100;6.814;2023-12-20T14:50:18;8.00;98.20
4374;DHT22;2201;51.100;6.814;2023-12-20T14:52:50;8.00;98.20
4374;DHT22;2201;51.100;6.814;2023-12-20T14:55:55;8.00;98.20
4374;DHT22;2201;51.100;6.814;2023-12-20T14:58:56;8.00;98.20
4374;DHT22;2201;51.100;6.814;2023-12-20T15:01:37;8.00;98.20
4374;DHT22;2201;51.100;6.814;2023-12-20T15:04:06;8.00;98.20
4374;DHT22;2201;51.100;6.814;2023-12-20T15:06:33;8.10;98.20
4374;DHT22;2201;51.100;6.814;2023-12-20T15:09:04;8.00;98.20
4374;DHT22;2201;51.100;6.814;2023-12-20T15:11:32;8.00;98.20
4374;DHT22;2201;51.100;6.814;2023-12-20T15:14:02;8.10;98.20
4374;DHT22;2201;51.100;6.814;2023-12-20T15:16:32;8.10;98.20
4374;DHT22;2201;51.100;6.814;2023-12-20T15:18:59;8.00;98.20
4374;DHT22;2201;51.100;6.814;2023-12-20T15:21:26;8.00;98.20
4374;DHT22;2201;51.100;6.814;2023-12-20T15:23:58;8.10;98.20
4374;DHT22;2201;51.100;6.814;2023-12-20T15:26:33;8.10;98.20
4374;DHT22;2201;51.100;6.814;2023-12-20T15:29:00;8.10;98.20
4374;DHT22;2201;51.100;6.814;2023-12-20T15:31:27;8.10;98.20
4374;DHT22;2201;51.100;6.814;2023-12-20T15:33:55;8.00;98.20
4374;DHT22;2201;51.100;6.814;2023-12-20T15:36:22;8.10;98.20
4374;DHT22;2201;51.100;6.814;2023-12-20T15:38:48;8.10;98.20
4374;DHT22;2201;51.100;6.814;2023-12-20T15:41:17;8.10;98.20
4374;DHT22;2201;51.100;6.814;2023-12-20T15:43:46;8.10;98.20
4374;DHT22;2201;51.100;6.814;2023-12-20T15:46:13;8.10;98.20
4374;DHT22;2201;51.100;6.814;2023-12-20T15:48:40;8.10;98.20
4374;DHT22;2201;51.100;6.814;2023-12-20T15:51:08;8.10;98.20
4374;DHT22;2201;51.100;6.814;2023-12-20T15:53:35;8.10;98.20
4374;DHT22;2201;51.100;6.814;2023-12-20T15:56:02;8.10;98.20
4374;DHT22;2201;51.100;6.814;2023-12-20T15:58:30;8.00;98.20
4374;DHT22;2201;51.100;6.814;2023-12-20T16:00:58;8.00;98.20
4374;DHT22;2201;51.100;6.814;2023-12-20T16:03:25;8.00;98.20
4374;DHT22;2201;51.100;6.814;2023-12-20T16:05:52;8.00;98.20
4374;DHT22;2201;51.100;6.814;2023-12-20T16:08:19;8.00;98.20
4374;DHT22;2201;51.100;6.814;2023-12-20T16:11:41;8.00;98.20
4374;DHT22;2201;51.100;6.814;2023-12-20T16:14:15;7.90;98.20
4374;DHT22;2201;51.100;6.814;2023-12-20T16:16:45;7.90;98.20
4374;DHT22;2201;51.100;6.814;2023-12-20T16:19:12;7.90;98.20
4374;DHT22;2201;51.100;6.814;2023-12-20T16:21:40;7.90;98.20
4374;DHT22;2201;51.100;6.814;2023-12-20T16:24:07;7.80;98.20
4374;DHT22;2201;51.100;6.814;2023-12-20T16:26:34;7.80;98.20
4374;DHT22;2201;51.100;6.814;2023-12-20T16:29:01;7.80;98.20
4374;DHT22;2201;51.100;6.814;2023-12-20T16:31:28;7.80;98.20
4374;DHT22;2201;51.100;6.814;2023-12-20T16:33:56;7.80;98.20
4374;DHT22;2201;51.100;6.814;2023-12-20T16:36:23;7.90;98.20
4374;DHT22;2201;51.100;6.814;2023-12-20T16:38:50;7.90;98.20
4374;DHT22;2201;51.100;6.814;2023-12-20T16:41:17;7.90;98.20
4374;DHT22;2201;51.100;6.814;2023-12-20T16:43:44;7.90;98.20
4374;DHT22;2201;51.100;6.814;2023-12-20T16:46:12;7.90;98.20
4374;DHT22;2201;51.100;6.814;2023-12-20T16:48:44;7.90;98.20
4374;DHT22;2201;51.100;6.814;2023-12-20T16:51:12;8.00;98.20
4374;DHT22;2201;51.100;6.814;2023-12-20T16:53:39;7.90;98.20
4374;DHT22;2201;51.100;6.814;2023-12-20T16:56:10;8.00;98.20
4374;DHT22;2201;51.100;6.814;2023-12-20T16:59:12;8.00;98.20
4374;DHT22;2201;51.100;6.814;2023-12-20T17:01:46;8.00;98.20
4374;DHT22;2201;51.100;6.814;2023-12-20T17:04:14;8.00;98.20
4374;DHT22;2201;51.100;6.814;2023-12-20T17:06:42;8.00;98.20
4374;DHT22;2201;51.100;6.814;2023-12-20T17:09:09;8.00;98.20
4374;DHT22;2201;51.100;6.814;2023-12-20T17:11:37;8.00;98.20
4374;DHT22;2201;51.100;6.814;2023-12-20T17:14:04;8.00;98.20
4374;DHT22;2201;51.100;6.814;2023-12-20T17:16:31;8.00;98.20
4374;DHT22;2201;51.100;6.814;2023-12-20T17:18:58;8.00;98.20
4374;DHT22;2201;51.100;6.814;2023-12-20T17:21:26;8.00;98.20
4374;DHT22;2201;51.100;6.814;2023-12-20T17:23:54;8.00;98.20
4374;DHT22;2201;51.100;6.814;2023-12-20T17:26:21;8.00;98.20
4374;DHT22;2201;51.100;6.814;2023-12-20T17:28:48;8.00;98.20
4374;DHT22;2201;51.100;6.814;2023-12-20T17:31:15;8.00;98.20
4374;DHT22;2201;51.100;6.814;2023-12-20T17:33:42;8.00;98.20
4374;DHT22;2201;51.100;6.814;2023-12-20T17:36:09;8.10;98.20
4374;DHT22;2201;51.100;6.814;2023-12-20T17:38:39;8.10;98.20
4374;DHT22;2201;51.100;6.814;2023-12-20T17:41:08;8.10;98.20
4374;DHT22;2201;51.100;6.814;2023-12-20T17:43:35;8.10;98.20
4374;DHT22;2201;51.100;6.814;2023-12-20T17:46:02;8.10;98.20
4374;DHT22;2201;51.100;6.814;2023-12-20T17:48:29;8.20;98.20
4374;DHT22;2201;51.100;6.814;2023-12-20T17:50:56;8.20;98.20
4374;DHT22;2201;51.100;6.814;2023-12-20T18:16:08;8.30;98.20
4374;DHT22;2201;51.100;6.814;2023-12-20T18:32:32;8.40;98.20
4374;DHT22;2201;51.100;6.814;2023-12-20T18:35:44;8.40;98.20
4374;DHT22;2201;51.100;6.814;2023-12-20T19:02:46;8.50;98.20
4374;DHT22;2201;51.100;6.814;2023-12-20T19:12:17;8.60;98.20
4374;DHT22;2201;51.100;6.814;2023-12-20T19:14:44;8.60;98.20
4374;DHT22;2201;51.100;6.814;2023-12-20T19:17:17;8.60;98.20
4374;DHT22;2201;51.100;6.814;2023-12-20T19:20:16;8.70;98.20
4374;DHT22;2201;51.100;6.814;2023-12-20T19:23:04;8.70;98.20
4374;DHT22;2201;51.100;6.814;2023-12-20T19:28:44;8.60;98.20
4374;DHT22;2201;51.100;6.814;2023-12-20T19:31:17;8.60;98.20
4374;DHT22;2201;51.100;6.814;2023-12-20T19:33:45;8.70;98.20
4374;DHT22;2201;51.100;6.814;2023-12-20T19:36:21;8.70;98.20
4374;DHT22;2201;51.100;6.814;2023-12-20T19:42:12;8.70;98.20
4374;DHT22;2201;51.100;6.814;2023-12-20T19:44:53;8.70;98.20
4374;DHT22;2201;51.100;6.814;2023-12-20T19:47:25;8.80;98.20
4374;DHT22;2201;51.100;6.814;2023-12-20T19:49:54;8.80;98.20
4374;DHT22;2201;51.100;6.814;2023-12-20T19:52:35;8.80;98.20
4374;DHT22;2201;51.100;6.814;2023-12-20T19:55:10;8.80;98.20
4374;DHT22;2201;51.100;6.814;2023-12-20T19:57:38;8.80;98.20
4374;DHT22;2201;51.100;6.814;2023-12-20T20:00:10;8.80;98.20
4374;DHT22;2201;51.100;6.814;2023-12-20T20:02:40;8.90;98.20
4374;DHT22;2201;51.100;6.814;2023-12-20T20:05:16;8.90;98.20
4374;DHT22;2201;51.100;6.814;2023-12-20T20:07:52;8.90;98.20
4374;DHT22;2201;51.100;6.814;2023-12-20T20:10:25;8.90;98.20
4374;DHT22;2201;51.100;6.814;2023-12-20T20:12:55;8.90;98.20
4374;DHT22;2201;51.100;6.814;2023-12-20T20:15:22;8.90;98.20
4374;DHT22;2201;51.100;6.814;2023-12-20T20:17:51;8.90;98.20
4374;DHT22;2201;51.100;6.814;2023-12-20T20:20:24;8.90;98.20
4374;DHT22;2201;51.100;6.814;2023-12-20T20:22:59;8.90;98.20
4374;DHT22;2201;51.100;6.814;2023-12-20T20:25:26;8.90;98.20